Share

Hemingford, NE (69348)

Panhandle Coop/Box Butte Co (KNEALLIA3) Elev 4140 ft | 42.22 °N, 102.98 °W | Change Station

Current weather conditions updated 2 minutes ago

Clear
Clear
42.7 °F
Feels Like 40 °F
N
4.0
Wind Variable Wind from ESE
Gusts 7.0 mph
Sunrise 6:03 AM
Sunset 7:39 PM
Moon Waning Gibbous

Today is forecast to be Much Warmer than yesterday.

Pressure 30.00 in
Visibility 10.0 miles
Clouds Clear
Windchill 40 °F
Dew Point 36 °F
Humidity 77%
Rainfall 0.00 in
Snow Depth Not available.
UV 0 out of 16
Pollen 10.70 out of 12
Air Quality Not available.
Flu Activity Sporadic
METAR KAIA 200853Z AUTO 16009KT 10SM CLR 04/01 A3000

More Conditions Fewer Conditions

Pressure 30.00 in
Visibility 10.0 miles
Clouds Clear
Windchill 40 °F
Dew Point 36 °F
Humidity 77%
Rainfall 0.00 in
Snow Depth Not available.
UV 0 out of 16
Pollen 10.70 out of 12
Air Quality Not available.
Flu Activity Sporadic
METAR KAIA 200853Z AUTO 16009KT 10SM CLR 04/01 A3000

More Conditions Fewer Conditions

10-Day Weather Forecast

Almanac

Astronomy

Apr. 20, 2014 Rise Set
Actual Time 6:03 AM MDT 7:39 PM MDT
Civil Twilight 5:33 AM MDT 8:09 PM MDT
Nautical Twilight 4:58 AM MDT 8:45 PM MDT
Astronomical Twilight 4:20 AM MDT 9:23 PM MDT
Moon 12:23 AM MDT 10:24 AM MDT
Length of Visible Light 14h 35m
Length of Day
13h 36m
Tomorrow will be 2m 39s longer.
Waning Gibbous, 71% of the Moon is Illuminated
Today
Waning Gibbous
Apr 22
Last Quarter
Apr 29
New
May 6
First Quarter
May 14
Full

Today's Extremes

State Highs State Lows

Community

  • Sunny day at the coast-Cape Arago Lighthouse
    Sunny day at the coast-Cape Arago Lighthouse
  • Cherry Blossoms
    Cherry Blossoms
  • White-Crowned Sparrow
    White-Crowned Sparrow
  • New Day
    New Day
  • Happy Easter!
    Happy Easter!

WunderPhotos

Upload Photos

1,703,122 photos uploaded!

WunderBlogs® & News

Nearby

Snow Depth

Station Depth Elevation
No new snow has been reported.

Coastal Water Temperatures

Place Temperature
No Stations Reporting

Earthquake Activity

City Distance Mag. Time & Date
No recent earthquake activity has been reported nearby.
Minimum magnitude displayed is 2.5.

Nearby Weather Stations

Station Location Temp. Windchill Dew Point Humidity Wind Precip. Elev Updated Type
Panhandle Coop/Box Butte Co, Alliance, NE 42.7 °F 40 °F 36 °F 77% ESE  at  4.0 mph 0.00 in / hr 4140 ft 3:26 AM MDT Normal
Wayne Rd., Alliance, NE 45.2 °F 40 °F 37 °F 72% SSW  at  10.0 mph 0.00 in / hr 4091 ft 3:19 AM MDT Normal

Show More Stations Show Fewer Stations

What do you think?

We're not finished. Please let us know what you like, what you don't like, and what you are still missing.